createdAt,value
2023-03-05T00:02:19.639Z,2.53
2023-03-05T00:04:45.858Z,2.38
2023-03-05T00:07:14.134Z,2.42
2023-03-05T00:09:40.516Z,2.33
2023-03-05T00:12:07.105Z,2.72
2023-03-05T00:14:33.358Z,2.63
2023-03-05T00:16:59.562Z,2.60
2023-03-05T00:19:25.735Z,2.67
2023-03-05T00:21:51.957Z,2.50
2023-03-05T00:24:18.317Z,2.30
2023-03-05T00:26:45.834Z,2.70
2023-03-05T00:29:18.172Z,2.38
2023-03-05T00:31:45.081Z,2.58
2023-03-05T00:34:13.095Z,2.58
2023-03-05T00:36:42.772Z,2.25
2023-03-05T00:39:09.551Z,2.25
2023-03-05T00:41:35.789Z,2.47
2023-03-05T00:44:02.039Z,2.65
2023-03-05T00:46:28.368Z,2.92
2023-03-05T00:48:55.446Z,2.58
2023-03-05T00:51:21.729Z,2.38
2023-03-05T00:53:47.930Z,2.92
2023-03-05T00:56:14.217Z,2.67
2023-03-05T00:58:40.467Z,2.55
2023-03-05T01:01:06.961Z,2.92
2023-03-05T01:03:33.773Z,3.00
2023-03-05T01:06:00.357Z,2.30
2023-03-05T01:08:27.168Z,2.78
2023-03-05T01:10:53.376Z,2.15
2023-03-05T01:13:20.000Z,2.97
2023-03-05T01:15:48.528Z,2.50
2023-03-05T01:18:15.009Z,2.28
2023-03-05T01:20:41.284Z,2.45
2023-03-05T01:23:07.542Z,2.50
2023-03-05T01:25:33.827Z,2.67
2023-03-05T01:28:00.113Z,2.60
2023-03-05T01:30:26.376Z,3.00
2023-03-05T01:32:52.688Z,2.15
2023-03-05T01:35:21.033Z,2.58
2023-03-05T01:37:47.627Z,2.63
2023-03-05T01:40:15.917Z,2.50
2023-03-05T01:42:46.925Z,2.35
2023-03-05T01:45:14.720Z,2.33
2023-03-05T01:47:40.914Z,2.55
2023-03-05T01:50:08.998Z,3.03
2023-03-05T01:52:36.673Z,2.60
2023-03-05T01:55:04.659Z,2.65
2023-03-05T01:57:40.181Z,2.38
2023-03-05T02:00:09.956Z,2.40
2023-03-05T02:02:36.402Z,2.65
2023-03-05T02:05:04.462Z,2.30
2023-03-05T02:07:31.505Z,2.33
2023-03-05T02:09:57.759Z,2.15
2023-03-05T02:12:24.110Z,2.35
2023-03-05T02:14:51.725Z,2.22
2023-03-05T02:17:18.076Z,2.40
2023-03-05T02:19:51.938Z,2.33
2023-03-05T02:22:19.290Z,2.50
2023-03-05T02:24:45.506Z,2.42
2023-03-05T02:27:12.665Z,2.78
2023-03-05T02:29:40.836Z,2.30
2023-03-05T02:32:08.563Z,2.30
2023-03-05T02:34:35.755Z,2.05
2023-03-05T02:37:04.440Z,2.40
2023-03-05T02:39:31.282Z,2.50
2023-03-05T02:41:57.630Z,2.00
2023-03-05T02:44:23.882Z,1.80
2023-03-05T02:46:50.098Z,2.50
2023-03-05T02:49:16.358Z,1.88
2023-03-05T02:51:42.556Z,2.30
2023-03-05T02:54:08.782Z,1.85
2023-03-05T02:56:35.058Z,1.50
2023-03-05T02:59:01.254Z,1.70
2023-03-05T03:01:29.605Z,2.10
2023-03-05T03:03:55.934Z,2.20
2023-03-05T03:06:22.136Z,1.58
2023-03-05T03:08:48.402Z,2.00
2023-03-05T03:11:14.641Z,1.60
2023-03-05T03:13:41.102Z,1.60
2023-03-05T03:16:08.835Z,1.50
2023-03-05T03:18:35.047Z,1.70
2023-03-05T03:21:01.837Z,2.05
2023-03-05T03:23:28.035Z,2.20
2023-03-05T03:25:54.307Z,2.10
2023-03-05T03:28:20.489Z,1.73
2023-03-05T03:30:46.886Z,2.03
2023-03-05T03:33:13.261Z,2.28
2023-03-05T03:35:39.481Z,2.00
2023-03-05T03:38:05.744Z,2.17
2023-03-05T03:40:31.937Z,2.00
2023-03-05T03:42:58.146Z,1.73
2023-03-05T03:45:25.085Z,2.33
2023-03-05T03:47:51.686Z,1.90
2023-03-05T03:50:18.333Z,2.35
2023-03-05T03:52:44.592Z,1.90
2023-03-05T03:55:11.043Z,2.25
2023-03-05T03:57:37.328Z,1.90
2023-03-05T04:00:06.840Z,2.50
2023-03-05T04:02:33.079Z,2.10
2023-03-05T04:04:59.304Z,2.15
2023-03-05T04:07:25.504Z,2.30
2023-03-05T04:09:51.762Z,2.20
2023-03-05T04:12:18.332Z,2.33
2023-03-05T04:14:48.434Z,2.78
2023-03-05T04:17:15.223Z,2.92
2023-03-05T04:19:41.828Z,3.38
2023-03-05T04:22:11.217Z,2.63
2023-03-05T04:24:38.184Z,3.03
2023-03-05T04:27:04.835Z,2.55
2023-03-05T04:29:31.165Z,2.63
2023-03-05T04:31:57.418Z,2.47
2023-03-05T04:34:23.690Z,3.03
2023-03-05T04:36:49.984Z,2.63
2023-03-05T04:39:16.275Z,2.75
2023-03-05T04:41:42.628Z,2.92
2023-03-05T04:44:08.896Z,3.38
2023-03-05T04:46:35.330Z,3.20
2023-03-05T04:49:01.526Z,3.03
2023-03-05T04:51:27.764Z,2.58
2023-03-05T04:53:54.007Z,2.60
2023-03-05T04:56:20.313Z,2.13
2023-03-05T04:58:46.541Z,2.67
2023-03-05T05:01:13.277Z,2.85
2023-03-05T05:03:39.477Z,3.08
2023-03-05T05:06:05.849Z,2.67
2023-03-05T05:08:32.119Z,2.95
2023-03-05T05:10:59.403Z,2.78
2023-03-05T05:13:25.956Z,2.53
2023-03-05T05:15:52.593Z,2.42
2023-03-05T05:18:18.889Z,2.97
2023-03-05T05:20:45.127Z,2.40
2023-03-05T05:23:11.399Z,2.78
2023-03-05T05:25:37.611Z,2.92
2023-03-05T05:28:04.062Z,2.55
2023-03-05T05:30:30.385Z,2.72
2023-03-05T05:32:56.734Z,2.33
2023-03-05T05:35:23.080Z,2.70
2023-03-05T05:37:49.704Z,2.53
2023-03-05T05:40:15.893Z,3.05
2023-03-05T05:42:42.144Z,2.50
2023-03-05T05:45:08.812Z,2.60
2023-03-05T05:47:35.055Z,2.88
2023-03-05T05:50:01.361Z,3.03
2023-03-05T05:52:27.581Z,3.10
2023-03-05T05:54:53.778Z,3.00
2023-03-05T05:57:19.975Z,3.03
2023-03-05T05:59:46.189Z,2.75
2023-03-05T06:02:12.520Z,2.97
2023-03-05T06:04:39.899Z,3.08
2023-03-05T06:07:06.349Z,3.30
2023-03-05T06:09:34.424Z,2.95
2023-03-05T06:12:00.755Z,2.97
2023-03-05T06:14:27.007Z,3.10
2023-03-05T06:16:53.266Z,2.63
2023-03-05T06:19:19.588Z,3.42
2023-03-05T06:21:45.883Z,3.63
2023-03-05T06:24:12.428Z,2.72
2023-03-05T06:26:38.732Z,3.05
2023-03-05T06:29:05.074Z,3.20
2023-03-05T06:31:31.323Z,3.47
2023-03-05T06:34:01.127Z,3.30
2023-03-05T06:36:27.532Z,3.03
2023-03-05T06:38:54.105Z,3.65
2023-03-05T06:41:21.794Z,4.28
2023-03-05T06:43:48.448Z,3.95
2023-03-05T06:46:19.031Z,4.82
2023-03-05T06:48:45.469Z,4.43
2023-03-05T06:51:25.819Z,4.50
2023-03-05T06:53:52.448Z,5.05
2023-03-05T06:56:19.520Z,4.47
2023-03-05T06:58:46.535Z,4.70
2023-03-05T07:01:13.510Z,4.40
2023-03-05T07:03:40.156Z,4.13
2023-03-05T07:06:07.450Z,4.65
2023-03-05T07:08:33.737Z,4.68
2023-03-05T07:11:00.110Z,5.45
2023-03-05T07:13:26.828Z,4.00
2023-03-05T07:15:53.208Z,4.35
2023-03-05T07:18:19.488Z,3.90
2023-03-05T07:20:46.989Z,3.47
2023-03-05T07:23:13.285Z,4.18
2023-03-05T07:25:39.502Z,3.97
2023-03-05T07:28:06.925Z,4.00
2023-03-05T07:30:33.991Z,3.95
2023-03-05T07:33:00.291Z,3.47
2023-03-05T07:35:26.598Z,3.50
2023-03-05T07:37:54.796Z,4.15
2023-03-05T07:40:22.086Z,3.78
2023-03-05T07:42:48.298Z,4.05
2023-03-05T07:45:14.518Z,3.90
2023-03-05T07:47:40.874Z,4.10
2023-03-05T07:50:07.311Z,3.83
2023-03-05T07:52:33.502Z,4.07
2023-03-05T07:54:59.741Z,4.13
2023-03-05T07:57:26.069Z,4.00
2023-03-05T07:59:52.261Z,4.50
2023-03-05T08:02:19.697Z,4.00
2023-03-05T08:04:45.906Z,4.55
2023-03-05T08:07:14.108Z,4.05
2023-03-05T08:09:42.679Z,4.38
2023-03-05T08:12:10.353Z,4.45
2023-03-05T08:14:36.970Z,3.70
2023-03-05T08:17:03.970Z,3.97
2023-03-05T08:19:30.162Z,3.97
2023-03-05T08:21:56.549Z,3.78
2023-03-05T08:24:29.210Z,4.00
2023-03-05T08:26:56.529Z,3.97
2023-03-05T08:29:22.850Z,3.90
2023-03-05T08:31:49.700Z,4.10
2023-03-05T08:34:15.953Z,4.00
2023-03-05T08:36:42.381Z,4.28
2023-03-05T08:39:09.773Z,4.53
2023-03-05T08:41:36.209Z,4.45
2023-03-05T08:44:02.454Z,3.92
2023-03-05T08:46:28.709Z,3.88
2023-03-05T08:48:55.013Z,4.63
2023-03-05T08:51:25.311Z,4.13
2023-03-05T08:53:51.986Z,4.63
2023-03-05T08:56:18.484Z,5.15
2023-03-05T08:58:46.012Z,4.65
2023-03-05T09:01:12.432Z,4.45
2023-03-05T09:03:38.857Z,4.70
2023-03-05T09:06:06.771Z,4.78
2023-03-05T09:08:33.319Z,5.68
2023-03-05T09:11:01.221Z,5.05
2023-03-05T09:13:27.484Z,4.70
2023-03-05T09:15:54.547Z,5.10
2023-03-05T09:18:21.421Z,4.18
2023-03-05T09:20:47.659Z,5.63
2023-03-05T09:23:13.983Z,5.30
2023-03-05T09:25:40.955Z,5.20
2023-03-05T09:28:07.540Z,5.30
2023-03-05T09:30:35.036Z,5.25
2023-03-05T09:33:01.820Z,4.53
2023-03-05T09:35:28.204Z,4.38
2023-03-05T09:37:54.684Z,5.90
2023-03-05T09:40:21.970Z,5.50
2023-03-05T09:42:54.163Z,5.68
2023-03-05T09:45:28.412Z,6.38
2023-03-05T09:48:13.665Z,6.35
2023-03-05T09:50:45.791Z,6.00
2023-03-05T09:53:15.909Z,6.35
2023-03-05T09:55:46.268Z,5.45
2023-03-05T09:58:22.339Z,6.13
2023-03-05T10:00:50.032Z,6.50
2023-03-05T10:03:22.172Z,6.57
2023-03-05T10:05:49.024Z,7.18
2023-03-05T10:08:18.940Z,6.35
2023-03-05T10:10:49.699Z,6.20
2023-03-05T10:13:22.637Z,6.53
2023-03-05T10:15:52.225Z,5.82
2023-03-05T10:18:35.091Z,5.88
2023-03-05T10:21:06.714Z,6.18
2023-03-05T10:23:51.361Z,7.10
2023-03-05T10:26:24.777Z,6.57
2023-03-05T10:29:03.195Z,6.75
2023-03-05T10:31:48.257Z,7.05
2023-03-05T10:34:27.731Z,7.80
2023-03-05T10:36:59.734Z,7.93
2023-03-05T10:39:35.112Z,8.73
2023-03-05T10:42:07.035Z,9.32
2023-03-05T10:44:37.388Z,8.98
2023-03-05T10:47:12.562Z,8.90
2023-03-05T10:49:43.743Z,8.98
2023-03-05T10:52:13.037Z,8.90
2023-03-05T10:54:42.597Z,9.73
2023-03-05T10:57:20.867Z,9.98
2023-03-05T11:00:07.751Z,8.52
2023-03-05T11:02:34.192Z,8.23
2023-03-05T11:05:00.469Z,7.63
2023-03-05T11:07:26.683Z,8.13
2023-03-05T11:10:04.933Z,7.65
2023-03-05T11:12:34.979Z,7.85
2023-03-05T11:15:10.397Z,8.23
2023-03-05T11:17:38.711Z,8.40
2023-03-05T11:20:31.697Z,8.13
2023-03-05T11:23:06.345Z,9.13
2023-03-05T11:25:33.428Z,9.35
2023-03-05T11:28:00.900Z,8.98
2023-03-05T11:30:28.801Z,8.88
2023-03-05T11:33:14.270Z,8.57
2023-03-05T11:35:41.976Z,9.10
2023-03-05T11:38:15.654Z,8.65
2023-03-05T11:40:42.403Z,8.73
2023-03-05T11:43:13.491Z,9.35
2023-03-05T11:45:40.842Z,8.95
2023-03-05T11:48:17.721Z,8.45
2023-03-05T11:50:45.220Z,9.20
2023-03-05T11:53:13.020Z,9.77
2023-03-05T11:55:44.614Z,8.57
2023-03-05T11:58:17.688Z,9.45
2023-03-05T12:00:45.439Z,9.25
2023-03-05T12:03:14.278Z,10.15
2023-03-05T12:05:42.965Z,9.32
2023-03-05T12:08:13.297Z,9.20
2023-03-05T12:10:39.511Z,8.90
2023-03-05T12:13:12.386Z,8.23
2023-03-05T12:15:45.272Z,8.05
2023-03-05T12:18:11.650Z,8.52
2023-03-05T12:20:37.869Z,8.45
2023-03-05T12:23:04.232Z,8.40
2023-03-05T12:25:46.504Z,8.00
2023-03-05T12:28:17.450Z,8.25
2023-03-05T12:30:43.690Z,8.02
2023-03-05T12:33:28.652Z,7.75
2023-03-05T12:36:14.855Z,7.70
2023-03-05T12:38:41.492Z,7.65
2023-03-05T12:41:22.816Z,7.65
2023-03-05T12:44:07.592Z,7.90
2023-03-05T12:46:35.551Z,8.20
2023-03-05T12:49:20.192Z,7.82
2023-03-05T12:51:48.056Z,7.90
2023-03-05T12:54:26.245Z,7.55
2023-03-05T12:56:53.275Z,7.50
2023-03-05T12:59:20.566Z,7.93
2023-03-05T13:01:48.551Z,7.60
2023-03-05T13:04:19.693Z,7.85
2023-03-05T13:06:45.994Z,7.13
2023-03-05T13:09:18.297Z,7.25
2023-03-05T13:11:46.667Z,7.57
2023-03-05T13:14:31.871Z,8.05
2023-03-05T13:16:58.492Z,8.38
2023-03-05T13:19:25.004Z,8.32
2023-03-05T13:21:58.900Z,8.60
2023-03-05T13:24:25.326Z,8.85
2023-03-05T13:26:51.651Z,8.10
2023-03-05T13:29:22.474Z,8.80
2023-03-05T13:32:02.376Z,8.38
2023-03-05T13:34:46.100Z,8.50
2023-03-05T13:37:17.404Z,9.13
2023-03-05T13:39:43.839Z,8.10
2023-03-05T13:42:17.900Z,8.43
2023-03-05T13:44:53.004Z,8.05
2023-03-05T13:47:20.363Z,8.73
2023-03-05T13:49:50.179Z,9.60
2023-03-05T13:52:27.904Z,10.18
2023-03-05T13:54:54.256Z,9.45
2023-03-05T13:57:32.450Z,9.77
2023-03-05T13:59:59.823Z,9.68
2023-03-05T14:02:27.813Z,9.55
2023-03-05T14:04:54.784Z,9.10
2023-03-05T14:07:38.215Z,8.85
2023-03-05T14:10:05.558Z,8.95
2023-03-05T14:12:40.881Z,9.45
2023-03-05T14:15:20.827Z,8.95
2023-03-05T14:17:47.465Z,9.38
2023-03-05T14:20:13.715Z,9.57
2023-03-05T14:22:41.331Z,9.20
2023-03-05T14:25:25.470Z,8.90
2023-03-05T14:27:51.979Z,8.43
2023-03-05T14:30:20.462Z,7.72
2023-03-05T14:32:46.752Z,7.93
2023-03-05T14:35:17.555Z,7.97
2023-03-05T14:37:46.777Z,8.13
2023-03-05T14:40:12.986Z,8.43
2023-03-05T14:42:58.089Z,7.93
2023-03-05T14:45:24.347Z,8.77
2023-03-05T14:47:51.290Z,8.07
2023-03-05T14:50:19.161Z,8.10
2023-03-05T14:52:46.220Z,9.55
2023-03-05T14:55:16.584Z,8.60
2023-03-05T14:57:43.114Z,7.53
2023-03-05T15:00:16.136Z,8.07
2023-03-05T15:02:42.644Z,7.65
2023-03-05T15:07:35.329Z,7.63
2023-03-05T15:10:01.692Z,8.68
2023-03-05T15:12:27.903Z,8.40
2023-03-05T15:14:54.823Z,8.07
2023-03-05T15:17:23.221Z,7.03
2023-03-05T15:19:50.022Z,8.32
2023-03-05T15:22:16.252Z,9.02
2023-03-05T15:24:42.750Z,8.88
2023-03-05T15:27:09.030Z,9.48
2023-03-05T15:29:35.262Z,9.00
2023-03-05T15:32:02.194Z,9.13
2023-03-05T15:34:28.847Z,9.20
2023-03-05T15:36:55.770Z,9.02
2023-03-05T15:39:24.583Z,9.30
2023-03-05T15:41:51.120Z,9.98
2023-03-05T15:44:17.955Z,9.45
2023-03-05T15:46:44.238Z,9.00
2023-03-05T15:49:10.536Z,9.35
2023-03-05T15:51:36.748Z,9.77
2023-03-05T15:54:03.017Z,10.10
2023-03-05T15:56:29.236Z,10.23
2023-03-05T15:58:55.506Z,9.80
2023-03-05T16:01:23.238Z,10.23
2023-03-05T16:03:50.101Z,9.75
2023-03-05T16:06:20.176Z,10.95
2023-03-05T16:08:46.794Z,10.55
2023-03-05T16:11:13.034Z,10.07
2023-03-05T16:13:40.072Z,11.25
2023-03-05T16:16:06.920Z,14.98
2023-03-05T16:18:34.508Z,14.77
2023-03-05T16:21:00.827Z,13.07
2023-03-05T16:23:27.061Z,12.50
2023-03-05T16:25:53.347Z,13.40
2023-03-05T16:28:19.563Z,12.60
2023-03-05T16:30:51.729Z,12.35
2023-03-05T16:33:17.962Z,12.18
2023-03-05T16:35:44.199Z,12.98
2023-03-05T16:38:10.531Z,13.10
2023-03-05T16:41:02.914Z,12.77
2023-03-05T16:43:24.201Z,12.25
2023-03-05T16:45:50.416Z,13.73
2023-03-05T16:48:16.656Z,12.73
2023-03-05T16:50:42.949Z,12.80
2023-03-05T16:53:09.214Z,11.77
2023-03-05T16:55:36.458Z,13.25
2023-03-05T16:58:02.673Z,12.18
2023-03-05T17:00:28.877Z,11.85
2023-03-05T17:02:55.214Z,12.48
2023-03-05T17:05:21.557Z,12.63
2023-03-05T17:07:47.864Z,11.38
2023-03-05T17:10:14.132Z,11.43
2023-03-05T17:12:41.151Z,11.02
2023-03-05T17:15:07.703Z,11.15
2023-03-05T17:17:33.942Z,11.07
2023-03-05T17:20:00.199Z,10.85
2023-03-05T17:22:26.465Z,10.88
2023-03-05T17:24:53.683Z,11.18
2023-03-05T17:27:22.480Z,10.88
2023-03-05T17:29:48.711Z,10.43
2023-03-05T17:32:14.946Z,11.20
2023-03-05T17:34:41.467Z,10.80
2023-03-05T17:37:07.731Z,10.90
2023-03-05T17:39:33.990Z,11.73
2023-03-05T17:42:00.521Z,10.73
2023-03-05T17:44:26.776Z,11.43
2023-03-05T17:46:52.972Z,11.65
2023-03-05T17:49:19.199Z,10.68
2023-03-05T17:51:45.399Z,11.40
2023-03-05T17:54:11.829Z,10.55
2023-03-05T17:56:38.074Z,10.85
2023-03-05T17:59:04.301Z,10.75
2023-03-05T18:01:31.891Z,9.80
2023-03-05T18:03:58.528Z,9.55
2023-03-05T18:06:25.180Z,9.65
2023-03-05T18:08:51.568Z,9.80
2023-03-05T18:11:18.197Z,10.38
2023-03-05T18:13:44.560Z,10.13
2023-03-05T18:16:10.839Z,9.65
2023-03-05T18:18:37.159Z,10.32
2023-03-05T18:21:03.389Z,9.98
2023-03-05T18:23:29.605Z,9.43
2023-03-05T18:25:55.833Z,10.50
2023-03-05T18:28:22.085Z,9.60
2023-03-05T18:30:48.814Z,10.00
2023-03-05T18:33:19.762Z,10.23
2023-03-05T18:35:46.379Z,10.15
2023-03-05T18:38:12.893Z,9.35
2023-03-05T18:40:39.393Z,8.85
2023-03-05T18:43:05.681Z,9.77
2023-03-05T18:45:33.910Z,10.00
2023-03-05T18:48:00.173Z,10.05
2023-03-05T18:50:28.016Z,10.27
2023-03-05T18:52:54.365Z,9.75
2023-03-05T18:55:23.392Z,10.05
2023-03-05T18:57:49.736Z,9.82
2023-03-05T19:00:20.717Z,9.63
2023-03-05T19:02:47.081Z,9.77
2023-03-05T19:05:14.398Z,9.18
2023-03-05T19:07:40.773Z,10.23
2023-03-05T19:10:08.136Z,9.88
2023-03-05T19:12:38.156Z,8.77
2023-03-05T19:15:05.429Z,9.18
2023-03-05T19:17:31.820Z,8.85
2023-03-05T19:19:59.582Z,9.32
2023-03-05T19:22:31.678Z,9.68
2023-03-05T19:24:58.069Z,9.30
2023-03-05T19:27:25.118Z,10.02
2023-03-05T19:29:51.520Z,9.88
2023-03-05T19:32:18.243Z,9.77
2023-03-05T19:34:47.507Z,9.43
2023-03-05T19:37:13.909Z,9.50
2023-03-05T19:39:40.170Z,9.35
2023-03-05T19:42:06.661Z,8.90
2023-03-05T19:44:32.966Z,9.25
2023-03-05T19:46:59.225Z,9.55
2023-03-05T19:49:25.568Z,9.00
2023-03-05T19:51:51.848Z,9.02
2023-03-05T19:54:19.657Z,9.90
2023-03-05T19:56:46.474Z,9.35
2023-03-05T19:59:16.283Z,10.63
2023-03-05T20:01:42.749Z,9.82
2023-03-05T20:04:10.891Z,9.50
2023-03-05T20:06:37.145Z,10.50
2023-03-05T20:09:03.405Z,10.32
2023-03-05T20:11:29.733Z,10.55
2023-03-05T20:13:56.533Z,10.65
2023-03-05T20:16:27.359Z,11.25
2023-03-05T20:18:54.830Z,11.57
2023-03-05T20:21:23.092Z,11.80
2023-03-05T20:23:50.162Z,11.80
2023-03-05T20:26:16.420Z,11.63
2023-03-05T20:28:42.638Z,12.35
2023-03-05T20:31:08.851Z,13.18
2023-03-05T20:33:35.276Z,12.75
2023-03-05T20:36:01.653Z,12.35
2023-03-05T20:38:31.254Z,13.00
2023-03-05T20:41:00.651Z,13.57
2023-03-05T20:43:31.542Z,14.25
2023-03-05T20:45:58.682Z,12.90
2023-03-05T20:48:25.828Z,14.32
2023-03-05T20:50:52.546Z,14.70
2023-03-05T20:53:19.108Z,13.63
2023-03-05T20:55:45.408Z,14.55
2023-03-05T20:58:11.981Z,13.43
2023-03-05T21:00:38.705Z,14.43
2023-03-05T21:03:05.431Z,14.30
2023-03-05T21:05:32.229Z,14.75
2023-03-05T21:07:59.496Z,14.05
2023-03-05T21:10:26.110Z,14.20
2023-03-05T21:12:53.004Z,14.27
2023-03-05T21:15:24.678Z,14.98
2023-03-05T21:17:51.462Z,15.43
2023-03-05T21:20:20.542Z,16.20
2023-03-05T21:22:46.797Z,15.52
2023-03-05T21:25:20.745Z,16.05
2023-03-05T21:27:48.494Z,15.50
2023-03-05T21:30:15.640Z,15.15
2023-03-05T21:32:41.940Z,16.10
2023-03-05T21:35:08.308Z,16.25
2023-03-05T21:37:36.716Z,15.05
2023-03-05T21:40:03.252Z,16.42
2023-03-05T21:42:29.577Z,16.20
2023-03-05T21:44:55.823Z,16.15
2023-03-05T21:47:22.067Z,15.80
2023-03-05T21:49:48.382Z,15.57
2023-03-05T21:52:15.097Z,16.25
2023-03-05T21:54:41.812Z,15.70
2023-03-05T21:57:09.637Z,16.00
2023-03-05T21:59:38.618Z,15.93
2023-03-05T22:02:04.897Z,16.50
2023-03-05T22:04:31.134Z,15.77
2023-03-05T22:06:57.332Z,16.77
2023-03-05T22:09:23.570Z,16.38
2023-03-05T22:11:49.755Z,16.15
2023-03-05T22:14:17.016Z,15.95
2023-03-05T22:16:44.300Z,15.60
2023-03-05T22:19:10.631Z,15.00
2023-03-05T22:21:36.937Z,14.40
2023-03-05T22:24:03.601Z,14.48
2023-03-05T22:26:35.339Z,13.70
2023-03-05T22:29:02.170Z,12.25
2023-03-05T22:31:28.412Z,12.63
2023-03-05T22:33:54.618Z,12.95
2023-03-05T22:36:21.009Z,12.57
2023-03-05T22:38:47.296Z,12.63
2023-03-05T22:41:14.461Z,11.50
2023-03-05T22:43:40.899Z,11.55
2023-03-05T22:46:11.426Z,11.80
2023-03-05T22:48:37.770Z,11.67
2023-03-05T22:51:04.052Z,10.82
2023-03-05T22:53:31.413Z,10.95
2023-03-05T22:55:57.660Z,11.27
2023-03-05T22:58:23.875Z,10.85
2023-03-05T23:00:50.088Z,10.88
2023-03-05T23:03:16.345Z,11.65
2023-03-05T23:05:42.654Z,11.45
2023-03-05T23:08:09.201Z,11.13
2023-03-05T23:10:35.531Z,11.93
2023-03-05T23:13:01.747Z,11.27
2023-03-05T23:15:29.846Z,11.57
2023-03-05T23:17:56.491Z,11.40
2023-03-05T23:20:24.294Z,10.52
2023-03-05T23:22:52.834Z,10.48
2023-03-05T23:25:20.309Z,11.05
2023-03-05T23:27:46.526Z,10.88
2023-03-05T23:30:23.107Z,11.60
2023-03-05T23:32:51.211Z,11.13
2023-03-05T23:35:19.214Z,10.93
2023-03-05T23:37:45.827Z,10.88
2023-03-05T23:40:14.169Z,11.63
2023-03-05T23:42:41.590Z,11.10
2023-03-05T23:45:09.080Z,11.15
2023-03-05T23:47:36.059Z,10.27
2023-03-05T23:50:03.772Z,10.30
2023-03-05T23:52:29.966Z,9.57
2023-03-05T23:54:56.213Z,10.50
2023-03-05T23:57:22.429Z,10.05
2023-03-05T23:59:48.647Z,8.85
